Flagstaff, AZ

6:33 PM MST on February 09, 2016 (GMT -0700)
University Highlands | | Change Station
CLOSE
Current Station
Personal Weather Station
Location: Flagstaff, AZ
Elevation: 7067 ft
Nearby Weather Stations

Elev 7067 ft 35.17 °N, 111.68 °W | Updated 8 seconds ago

Clear
Clear
46.4 °F
Feels Like 46 °F
N
0.0
Wind Variable Wind from WSW
Gusts 0.0 mph

Today
High -- | Low -- °F
--% Chance of Precip.
Yesterday
High -- | Low -- °F
Precip. -- in
Pressure 30.34 in
Visibility 10.0 miles
Clouds Clear
Windchill 46 °F
Dew Point 15 °F
Humidity 28%
Rainfall 0.00 in
Snow Depth Not available.
7:19 AM 6:02 PM
Waxing Crescent, 3% visible
METAR KFLG 100057Z 08007KT 10SM CLR 09/M09 A3041 RMK AO2 SLP273 T00891089
Pressure 30.34 in
Visibility 10.0 miles
Clouds Clear
Windchill 46 °F
Dew Point 15 °F
Humidity 28%
Rainfall 0.00 in
Snow Depth Not available.
7:19 AM 6:02 PM
Waxing Crescent, 3% visible
METAR KFLG 100057Z 08007KT 10SM CLR 09/M09 A3041 RMK AO2 SLP273 T00891089

10-Day Weather Forecast

Almanac

Astronomy

Feb. 09, 2016 Rise Set
Actual Time
Civil Twilight
Nautical Twilight
Astronomical Twilight
Moon
Length of Visible Light
Length of Day
Tomorrow will be .
, % of the Moon is Illuminated

Today's Extremes

State Highs State Lows

Community

WunderPhotos

Upload Photos

1,891,760 photos uploaded!

WunderBlog® & News

Nearby

Air Quality

  Air Quality AQ Index Pollutant
Not available.

Snow Depth

Station Depth Elevation

Earthquake Activity

City Distance Mag. Time & Date
Minimum magnitude displayed is 2.5.

Coastal Water Temperatures

Place Temperature

Stations

Nearby Weather Stations

Station Location Temp. Windchill Dew Point Humidity Wind Precip. Elev Updated Type
                   

Watches & Warnings

There are currently no watches in effect.